createdAt,value
2023-03-06T00:01:00.149Z,93921.19
2023-03-06T00:03:28.254Z,93903.66
2023-03-06T00:05:57.893Z,93914.94
2023-03-06T00:08:27.456Z,93905.66
2023-03-06T00:10:56.379Z,93908.31
2023-03-06T00:13:26.929Z,93914.88
2023-03-06T00:15:54.464Z,93922.38
2023-03-06T00:18:22.017Z,93916.19
2023-03-06T00:20:49.382Z,93908.25
2023-03-06T00:23:16.975Z,93910.69
2023-03-06T00:25:47.158Z,93910.72
2023-03-06T00:28:15.886Z,93914.41
2023-03-06T00:30:44.129Z,93923.72
2023-03-06T00:33:12.322Z,93903.66
2023-03-06T00:35:40.444Z,93911.84
2023-03-06T00:38:08.278Z,93915.19
2023-03-06T00:40:35.477Z,93914.88
2023-03-06T00:43:03.036Z,93904.28
2023-03-06T00:45:30.592Z,93899.41
2023-03-06T00:47:58.032Z,93912.59
2023-03-06T00:50:25.216Z,93905.59
2023-03-06T00:52:52.962Z,93909.59
2023-03-06T00:55:20.185Z,93910.88
2023-03-06T00:57:47.675Z,93903.28
2023-03-06T01:00:15.454Z,93899.81
2023-03-06T01:02:42.970Z,93899.69
2023-03-06T01:05:13.814Z,93893.72
2023-03-06T01:07:41.401Z,93903.00
2023-03-06T01:10:09.735Z,93899.19
2023-03-06T01:12:37.244Z,93908.00
2023-03-06T01:15:05.897Z,93905.91
2023-03-06T01:17:33.424Z,93890.63
2023-03-06T01:20:00.646Z,93893.91
2023-03-06T01:22:28.227Z,93890.94
2023-03-06T01:24:55.350Z,93887.50
2023-03-06T01:27:22.943Z,93897.03
2023-03-06T01:29:50.271Z,93888.94
2023-03-06T01:32:17.763Z,93885.41
2023-03-06T01:34:44.895Z,93890.44
2023-03-06T01:37:12.760Z,93889.13
2023-03-06T01:39:39.917Z,93889.00
2023-03-06T01:42:07.624Z,93882.06
2023-03-06T01:44:34.787Z,93885.34
2023-03-06T01:47:02.589Z,93877.56
2023-03-06T01:49:38.394Z,93876.47
2023-03-06T01:52:19.364Z,93887.75
2023-03-06T01:54:57.081Z,93878.84
2023-03-06T01:57:30.166Z,93887.03
2023-03-06T02:00:21.437Z,93881.44
2023-03-06T02:02:55.724Z,93883.97
2023-03-06T02:05:23.406Z,93881.19
2023-03-06T02:07:52.068Z,93879.25
2023-03-06T02:10:20.806Z,93885.19
2023-03-06T02:12:50.648Z,93873.97
2023-03-06T02:15:21.519Z,93873.84
2023-03-06T02:17:51.707Z,93876.94
2023-03-06T02:20:40.114Z,93881.28
2023-03-06T02:23:17.274Z,93865.41
2023-03-06T02:25:48.111Z,93878.69
2023-03-06T02:28:20.833Z,93865.72
2023-03-06T02:30:51.371Z,93876.94
2023-03-06T02:33:23.088Z,93863.31
2023-03-06T02:35:57.858Z,93860.91
2023-03-06T02:38:30.201Z,93865.41
2023-03-06T02:40:58.243Z,93860.34
2023-03-06T02:43:34.134Z,93871.81
2023-03-06T02:46:02.483Z,93872.13
2023-03-06T02:48:30.133Z,93875.41
2023-03-06T02:50:57.477Z,93871.66
2023-03-06T02:53:25.609Z,93863.91
2023-03-06T02:55:52.980Z,93883.44
2023-03-06T02:58:21.574Z,93870.69
2023-03-06T03:00:50.332Z,93873.91
2023-03-06T03:03:19.668Z,93879.50
2023-03-06T03:05:46.847Z,93875.03
2023-03-06T03:08:24.367Z,93862.94
2023-03-06T03:10:56.793Z,93863.41
2023-03-06T03:13:25.348Z,93874.53
2023-03-06T03:16:05.113Z,93872.06
2023-03-06T03:18:33.359Z,93878.56
2023-03-06T03:21:00.588Z,93886.38
2023-03-06T03:23:28.627Z,93883.41
2023-03-06T03:26:07.294Z,93867.09
2023-03-06T03:28:36.377Z,93870.44
2023-03-06T03:31:09.345Z,93868.56
2023-03-06T03:33:37.266Z,93863.44
2023-03-06T03:36:06.701Z,93866.13
2023-03-06T03:38:37.448Z,93869.38
2023-03-06T03:41:05.371Z,93871.31
2023-03-06T03:43:34.358Z,93880.06
2023-03-06T03:46:01.769Z,93872.53
2023-03-06T03:48:30.175Z,93870.50
2023-03-06T03:51:13.033Z,93869.72
2023-03-06T03:53:46.738Z,93872.81
2023-03-06T03:56:17.838Z,93877.06
2023-03-06T03:58:54.792Z,93853.06
2023-03-06T04:01:24.311Z,93872.75
2023-03-06T04:03:52.151Z,93881.47
2023-03-06T04:06:20.187Z,93869.13
2023-03-06T04:08:48.402Z,93881.47
2023-03-06T04:11:16.105Z,93875.44
2023-03-06T04:13:44.198Z,93877.13
2023-03-06T04:16:11.472Z,93863.50
2023-03-06T04:18:40.872Z,93873.00
2023-03-06T04:21:08.797Z,93875.53
2023-03-06T04:23:37.831Z,93875.06
2023-03-06T04:26:06.166Z,93878.63
2023-03-06T04:28:33.907Z,93879.91
2023-03-06T04:31:02.358Z,93879.19
2023-03-06T04:33:31.619Z,93876.88
2023-03-06T04:35:59.119Z,93880.78
2023-03-06T04:38:30.042Z,93883.41
2023-03-06T04:40:57.236Z,93877.34
2023-03-06T04:43:24.953Z,93874.72
2023-03-06T04:45:52.247Z,93879.06
2023-03-06T04:48:19.990Z,93868.16
2023-03-06T04:50:47.465Z,93868.03
2023-03-06T04:53:16.922Z,93859.09
2023-03-06T04:55:44.125Z,93868.38
2023-03-06T04:58:15.650Z,93866.19
2023-03-06T05:00:43.203Z,93861.84
2023-03-06T05:03:12.413Z,93850.28
2023-03-06T05:05:39.609Z,93865.47
2023-03-06T05:08:07.112Z,93851.50
2023-03-06T05:10:34.368Z,93861.69
2023-03-06T05:13:01.863Z,93858.47
2023-03-06T05:15:29.138Z,93859.25
2023-03-06T05:17:56.775Z,93848.34
2023-03-06T05:20:24.539Z,93854.88
2023-03-06T05:22:52.053Z,93851.53
2023-03-06T05:25:19.339Z,93853.59
2023-03-06T05:27:47.243Z,93852.16
2023-03-06T05:30:15.187Z,93849.44
2023-03-06T05:32:43.049Z,93856.88
2023-03-06T05:35:21.047Z,93862.84
2023-03-06T05:37:49.296Z,93852.50
2023-03-06T05:40:17.225Z,93855.22
2023-03-06T05:42:45.223Z,93855.41
2023-03-06T05:45:12.782Z,93853.84
2023-03-06T05:47:40.395Z,93858.97
2023-03-06T05:50:08.589Z,93866.63
2023-03-06T05:52:36.868Z,93862.31
2023-03-06T05:55:04.248Z,93855.25
2023-03-06T05:57:31.896Z,93872.91
2023-03-06T05:59:59.177Z,93867.63
2023-03-06T06:02:26.661Z,93877.81
2023-03-06T06:04:53.850Z,93868.75
2023-03-06T06:07:21.410Z,93876.75
2023-03-06T06:09:48.628Z,93880.44
2023-03-06T06:12:16.129Z,93868.81
2023-03-06T06:14:43.274Z,93873.25
2023-03-06T06:17:12.710Z,93873.50
2023-03-06T06:19:39.982Z,93878.63
2023-03-06T06:22:07.804Z,93867.59
2023-03-06T06:24:35.037Z,93860.69
2023-03-06T06:27:04.229Z,93872.63
2023-03-06T06:29:32.384Z,93859.97
2023-03-06T06:32:00.387Z,93850.19
2023-03-06T06:34:28.365Z,93872.94
2023-03-06T06:36:56.044Z,93877.44
2023-03-06T06:39:24.029Z,93861.41
2023-03-06T06:42:09.703Z,93868.84
2023-03-06T06:44:40.208Z,93887.34
2023-03-06T06:47:25.362Z,93873.66
2023-03-06T06:49:54.373Z,93883.91
2023-03-06T06:52:23.355Z,93876.09
2023-03-06T06:54:51.086Z,93890.16
2023-03-06T06:57:18.736Z,93887.91
2023-03-06T06:59:46.159Z,93891.38
2023-03-06T07:02:15.998Z,93889.91
2023-03-06T07:05:01.990Z,93891.03
2023-03-06T07:07:33.345Z,93898.81
2023-03-06T07:10:00.711Z,93893.94
2023-03-06T07:12:28.252Z,93883.75
2023-03-06T07:14:55.854Z,93887.50
2023-03-06T07:17:23.441Z,93884.31
2023-03-06T07:19:50.907Z,93866.13
2023-03-06T07:22:18.564Z,93886.41
2023-03-06T07:24:45.836Z,93888.41
2023-03-06T07:27:13.340Z,93882.72
2023-03-06T07:29:43.392Z,93884.97
2023-03-06T07:32:11.700Z,93875.25
2023-03-06T07:34:38.972Z,93893.09
2023-03-06T07:37:06.672Z,93895.03
2023-03-06T07:39:34.024Z,93898.03
2023-03-06T07:42:02.178Z,93886.25
2023-03-06T07:44:38.583Z,93886.25
2023-03-06T07:47:06.409Z,93887.41
2023-03-06T07:49:35.018Z,93886.53
2023-03-06T07:52:03.251Z,93890.94
2023-03-06T07:54:30.915Z,93892.84
2023-03-06T07:56:59.041Z,93900.44
2023-03-06T07:59:29.072Z,93883.66
2023-03-06T08:01:57.634Z,93885.63
2023-03-06T08:04:24.859Z,93887.81
2023-03-06T08:06:53.764Z,93888.81
2023-03-06T08:09:20.982Z,93902.09
2023-03-06T08:11:48.582Z,93878.66
2023-03-06T08:14:15.906Z,93896.00
2023-03-06T08:16:43.709Z,93879.88
2023-03-06T08:19:11.081Z,93886.66
2023-03-06T08:21:38.770Z,93890.03
2023-03-06T08:24:07.481Z,93875.84
2023-03-06T08:26:35.780Z,93884.47
2023-03-06T08:29:03.863Z,93877.53
2023-03-06T08:31:33.072Z,93876.59
2023-03-06T08:34:06.409Z,93860.59
2023-03-06T08:36:34.522Z,93878.69
2023-03-06T08:39:02.685Z,93885.59
2023-03-06T08:41:30.933Z,93880.28
2023-03-06T08:43:58.707Z,93871.81
2023-03-06T08:46:28.688Z,93879.97
2023-03-06T08:48:58.791Z,93874.16
2023-03-06T08:51:26.917Z,93899.78
2023-03-06T08:53:54.248Z,93883.84
2023-03-06T08:56:31.085Z,93872.38
2023-03-06T08:59:01.037Z,93891.06
2023-03-06T09:01:35.288Z,93888.53
2023-03-06T09:04:06.054Z,93872.41
2023-03-06T09:06:36.406Z,93880.16
2023-03-06T09:09:04.163Z,93876.75
2023-03-06T09:11:32.165Z,93870.00
2023-03-06T09:13:59.609Z,93874.09
2023-03-06T09:16:27.360Z,93864.91
2023-03-06T09:18:55.108Z,93870.50
2023-03-06T09:21:23.882Z,93853.91
2023-03-06T09:23:52.196Z,93855.31
2023-03-06T09:26:20.067Z,93856.38
2023-03-06T09:28:47.611Z,93863.13
2023-03-06T09:31:17.775Z,93861.56
2023-03-06T09:33:45.554Z,93852.34
2023-03-06T09:36:19.799Z,93858.56
2023-03-06T09:38:50.077Z,93849.53
2023-03-06T09:41:25.006Z,93838.75
2023-03-06T09:44:04.939Z,93851.50
2023-03-06T09:46:38.192Z,93843.47
2023-03-06T09:49:29.380Z,93840.72
2023-03-06T09:52:26.248Z,93848.41
2023-03-06T09:54:57.778Z,93837.00
2023-03-06T09:57:35.774Z,93825.81
2023-03-06T10:00:13.021Z,93824.84
2023-03-06T10:02:48.848Z,93838.66
2023-03-06T10:05:24.584Z,93828.69
2023-03-06T10:08:06.799Z,93818.09
2023-03-06T10:10:50.716Z,93815.00
2023-03-06T10:13:27.341Z,93813.97
2023-03-06T10:16:17.690Z,93807.38
2023-03-06T10:18:45.865Z,93797.00
2023-03-06T10:21:24.667Z,93801.94
2023-03-06T10:24:03.073Z,93793.50
2023-03-06T10:26:41.530Z,93791.41
2023-03-06T10:29:27.955Z,93795.06
2023-03-06T10:32:09.662Z,93778.28
2023-03-06T10:34:39.818Z,93771.41
2023-03-06T10:37:31.017Z,93767.16
2023-03-06T10:40:13.722Z,93782.56
2023-03-06T10:42:41.044Z,93778.06
2023-03-06T10:45:15.006Z,93778.88
2023-03-06T10:47:43.392Z,93779.00
2023-03-06T10:50:38.081Z,93773.88
2023-03-06T10:53:21.090Z,93780.78
2023-03-06T10:56:07.001Z,93777.31
2023-03-06T10:58:34.333Z,93781.41
2023-03-06T11:01:31.004Z,93771.84
2023-03-06T11:04:21.369Z,93769.66
2023-03-06T11:07:04.315Z,93770.25
2023-03-06T11:09:34.313Z,93754.88
2023-03-06T11:12:33.360Z,93742.53
2023-03-06T11:15:07.550Z,93759.69
2023-03-06T11:17:59.540Z,93759.38
2023-03-06T11:20:49.927Z,93746.88
2023-03-06T11:23:37.298Z,93749.38
2023-03-06T11:26:16.295Z,93746.22
2023-03-06T11:29:11.636Z,93749.66
2023-03-06T11:31:54.840Z,93735.69
2023-03-06T11:34:59.410Z,93738.72
2023-03-06T11:37:32.420Z,93725.25
2023-03-06T11:40:13.540Z,93726.88
2023-03-06T11:43:14.255Z,93730.94
2023-03-06T11:46:00.618Z,93728.94
2023-03-06T11:48:56.584Z,93729.53
2023-03-06T11:51:33.353Z,93735.34
2023-03-06T11:54:01.311Z,93729.91
2023-03-06T11:56:51.434Z,93722.19
2023-03-06T12:00:00.387Z,93732.00
2023-03-06T12:02:39.915Z,93724.88
2023-03-06T12:05:18.042Z,93714.50
2023-03-06T12:08:12.792Z,93708.63
2023-03-06T12:10:51.882Z,93709.72
2023-03-06T12:13:35.199Z,93701.13
2023-03-06T12:16:24.491Z,93693.63
2023-03-06T12:19:05.167Z,93692.41
2023-03-06T12:21:38.568Z,93676.59
2023-03-06T12:24:16.509Z,93676.41
2023-03-06T12:27:21.236Z,93678.81
2023-03-06T12:30:19.888Z,93677.59
2023-03-06T12:32:56.570Z,93668.72
2023-03-06T12:35:46.335Z,93675.78
2023-03-06T12:38:22.636Z,93674.38
2023-03-06T12:41:15.208Z,93681.72
2023-03-06T12:43:51.555Z,93704.91
2023-03-06T12:46:24.089Z,93691.38
2023-03-06T12:48:57.222Z,93698.28
2023-03-06T12:51:25.080Z,93694.56
2023-03-06T12:53:53.449Z,93697.75
2023-03-06T12:56:22.433Z,93699.59
2023-03-06T12:58:58.034Z,93691.34
2023-03-06T13:01:44.379Z,93692.97
2023-03-06T13:04:14.430Z,93689.78
2023-03-06T13:06:51.457Z,93692.16
2023-03-06T13:09:44.816Z,93695.91
2023-03-06T13:12:25.809Z,93693.50
2023-03-06T13:14:56.531Z,93690.56
2023-03-06T13:17:24.139Z,93694.03
2023-03-06T13:20:14.285Z,93687.09
2023-03-06T13:22:45.134Z,93684.44
2023-03-06T13:25:21.423Z,93679.09
2023-03-06T13:27:55.317Z,93682.84
2023-03-06T13:30:27.400Z,93678.03
2023-03-06T13:32:56.348Z,93681.50
2023-03-06T13:35:52.816Z,93689.97
2023-03-06T13:38:30.295Z,93692.06
2023-03-06T13:41:25.509Z,93681.75
2023-03-06T13:43:58.217Z,93677.69
2023-03-06T13:46:35.335Z,93681.63
2023-03-06T13:49:11.942Z,93693.22
2023-03-06T13:52:05.250Z,93686.94
2023-03-06T13:54:55.622Z,93661.69
2023-03-06T13:57:29.046Z,93672.84
2023-03-06T14:00:19.634Z,93675.81
2023-03-06T14:03:31.556Z,93677.91
2023-03-06T14:05:59.242Z,93658.75
2023-03-06T14:08:30.853Z,93664.88
2023-03-06T14:11:19.485Z,93666.75
2023-03-06T14:13:51.832Z,93658.75
2023-03-06T14:16:37.555Z,93669.41
2023-03-06T14:19:17.632Z,93666.25
2023-03-06T14:21:53.475Z,93667.19
2023-03-06T14:24:26.181Z,93669.91
2023-03-06T14:26:53.899Z,93675.69
2023-03-06T14:29:26.216Z,93653.88
2023-03-06T14:31:56.071Z,93660.75
2023-03-06T14:34:29.089Z,93660.75
2023-03-06T14:37:08.242Z,93663.88
2023-03-06T14:39:37.127Z,93644.19
2023-03-06T14:42:25.407Z,93669.69
2023-03-06T14:45:03.427Z,93661.19
2023-03-06T14:47:33.393Z,93668.88
2023-03-06T14:50:27.250Z,93656.22
2023-03-06T14:53:19.251Z,93656.47
2023-03-06T14:55:56.831Z,93661.78
2023-03-06T14:58:54.326Z,93651.19
2023-03-06T15:01:31.848Z,93659.38
2023-03-06T15:04:01.574Z,93669.44
2023-03-06T15:06:40.334Z,93660.69
2023-03-06T15:09:20.780Z,93661.72
2023-03-06T15:11:57.086Z,93646.59
2023-03-06T15:14:33.049Z,93656.69
2023-03-06T15:17:31.305Z,93643.72
2023-03-06T15:20:00.447Z,93651.66
2023-03-06T15:22:30.059Z,93658.59
2023-03-06T15:25:16.340Z,93657.31
2023-03-06T15:27:56.323Z,93651.53
2023-03-06T15:30:33.865Z,93651.72
2023-03-06T15:33:18.342Z,93647.75
2023-03-06T15:36:04.042Z,93652.25
2023-03-06T15:38:41.607Z,93662.38
2023-03-06T15:41:42.852Z,93657.31
2023-03-06T15:44:14.562Z,93651.19
2023-03-06T15:46:44.491Z,93654.06
2023-03-06T15:49:17.958Z,93653.00
2023-03-06T15:51:46.543Z,93652.16
2023-03-06T15:54:14.410Z,93652.16
2023-03-06T15:56:44.119Z,93649.81
2023-03-06T15:59:27.028Z,93653.28
2023-03-06T16:01:54.879Z,93645.81
2023-03-06T16:04:22.147Z,93653.53
2023-03-06T16:06:49.802Z,93661.41
2023-03-06T16:09:16.974Z,93656.34
2023-03-06T16:11:45.211Z,93647.88
2023-03-06T16:14:24.191Z,93659.06
2023-03-06T16:16:54.411Z,93643.38
2023-03-06T16:19:26.473Z,93652.44
2023-03-06T16:21:55.906Z,93660.88
2023-03-06T16:24:23.298Z,93656.25
2023-03-06T16:26:53.268Z,93649.16
2023-03-06T16:29:24.189Z,93647.50
2023-03-06T16:31:52.232Z,93660.47
2023-03-06T16:34:20.082Z,93647.63
2023-03-06T16:36:49.239Z,93647.63
2023-03-06T16:39:21.882Z,93655.03
2023-03-06T16:41:51.197Z,93661.44
2023-03-06T16:44:19.791Z,93648.19
2023-03-06T16:46:49.540Z,93643.41
2023-03-06T16:49:22.429Z,93654.88
2023-03-06T16:51:51.062Z,93658.84
2023-03-06T16:54:18.880Z,93652.94
2023-03-06T16:56:46.533Z,93651.91
2023-03-06T16:59:13.868Z,93648.72
2023-03-06T17:01:45.152Z,93655.00
2023-03-06T17:04:12.682Z,93651.34
2023-03-06T17:06:42.078Z,93656.03
2023-03-06T17:09:11.083Z,93653.34
2023-03-06T17:11:39.044Z,93665.00
2023-03-06T17:14:07.178Z,93666.63
2023-03-06T17:16:39.398Z,93666.06
2023-03-06T17:19:07.499Z,93649.25
2023-03-06T17:21:35.728Z,93671.88
2023-03-06T17:24:03.941Z,93668.47
2023-03-06T17:26:31.712Z,93665.00
2023-03-06T17:28:59.145Z,93671.69
2023-03-06T17:31:28.342Z,93660.84
2023-03-06T17:34:00.546Z,93663.13
2023-03-06T17:36:29.558Z,93649.34
2023-03-06T17:38:59.470Z,93658.66
2023-03-06T17:41:27.288Z,93660.13
2023-03-06T17:43:58.535Z,93669.72
2023-03-06T17:46:26.278Z,93668.59
2023-03-06T17:48:53.710Z,93657.94
2023-03-06T17:51:21.327Z,93657.31
2023-03-06T17:53:49.478Z,93655.75
2023-03-06T17:56:17.211Z,93668.91
2023-03-06T17:58:45.102Z,93662.47
2023-03-06T18:01:19.824Z,93668.28
2023-03-06T18:03:49.514Z,93661.38
2023-03-06T18:06:18.565Z,93664.97
2023-03-06T18:08:46.189Z,93672.34
2023-03-06T18:11:14.088Z,93681.75
2023-03-06T18:13:44.110Z,93678.53
2023-03-06T18:16:13.343Z,93680.53
2023-03-06T18:18:40.941Z,93686.88
2023-03-06T18:21:10.723Z,93677.06
2023-03-06T18:23:39.404Z,93678.28
2023-03-06T18:26:11.886Z,93677.47
2023-03-06T18:28:42.563Z,93672.63
2023-03-06T18:31:16.025Z,93664.09
2023-03-06T18:33:43.570Z,93684.53
2023-03-06T18:36:11.644Z,93682.13
2023-03-06T18:38:40.373Z,93695.66
2023-03-06T18:41:08.783Z,93679.81
2023-03-06T18:43:37.108Z,93693.66
2023-03-06T18:46:05.785Z,93694.13
2023-03-06T18:48:33.079Z,93686.44
2023-03-06T18:51:08.074Z,93687.19
2023-03-06T18:53:36.487Z,93682.69
2023-03-06T18:56:04.837Z,93681.94
2023-03-06T18:58:32.813Z,93682.63
2023-03-06T19:01:08.219Z,93683.47
2023-03-06T19:03:36.227Z,93687.50
2023-03-06T19:06:06.732Z,93682.97
2023-03-06T19:08:35.488Z,93688.47
2023-03-06T19:11:09.200Z,93685.13
2023-03-06T19:13:36.696Z,93685.56
2023-03-06T19:16:04.747Z,93684.59
2023-03-06T19:18:32.125Z,93673.75
2023-03-06T19:21:18.136Z,93676.94
2023-03-06T19:23:45.545Z,93671.84
2023-03-06T19:26:13.866Z,93676.09
2023-03-06T19:28:43.246Z,93688.25
2023-03-06T19:31:11.904Z,93680.88
2023-03-06T19:33:40.249Z,93684.88
2023-03-06T19:36:10.414Z,93680.00
2023-03-06T19:38:37.982Z,93674.88
2023-03-06T19:41:06.447Z,93683.34
2023-03-06T19:43:33.771Z,93688.91
2023-03-06T19:46:01.620Z,93688.81
2023-03-06T19:48:28.969Z,93681.06
2023-03-06T19:50:56.726Z,93685.28
2023-03-06T19:53:24.045Z,93670.72
2023-03-06T19:55:51.740Z,93688.81
2023-03-06T19:58:19.010Z,93678.75
2023-03-06T20:00:46.545Z,93686.16
2023-03-06T20:03:13.877Z,93689.91
2023-03-06T20:05:48.074Z,93687.94
2023-03-06T20:08:18.397Z,93675.31
2023-03-06T20:10:45.948Z,93685.03
2023-03-06T20:13:13.573Z,93687.88
2023-03-06T20:15:41.152Z,93697.66
2023-03-06T20:18:08.586Z,93690.47
2023-03-06T20:20:37.991Z,93691.09
2023-03-06T20:23:05.179Z,93687.41
2023-03-06T20:25:36.378Z,93695.66
2023-03-06T20:28:05.123Z,93695.31
2023-03-06T20:30:38.190Z,93699.03
2023-03-06T20:33:05.888Z,93696.28
2023-03-06T20:35:33.379Z,93687.97
2023-03-06T20:38:00.877Z,93691.72
2023-03-06T20:40:28.512Z,93697.50
2023-03-06T20:42:55.794Z,93708.34
2023-03-06T20:45:23.374Z,93701.38
2023-03-06T20:47:50.644Z,93703.00
2023-03-06T20:50:18.287Z,93704.66
2023-03-06T20:52:45.451Z,93701.69
2023-03-06T20:55:12.980Z,93707.66
2023-03-06T20:57:40.283Z,93696.00
2023-03-06T21:00:08.927Z,93709.63
2023-03-06T21:02:36.201Z,93692.19
2023-03-06T21:05:04.055Z,93701.31
2023-03-06T21:07:31.546Z,93699.28
2023-03-06T21:09:59.136Z,93706.03
2023-03-06T21:12:26.699Z,93703.22
2023-03-06T21:14:54.439Z,93701.66
2023-03-06T21:17:21.628Z,93701.53
2023-03-06T21:19:49.250Z,93689.88
2023-03-06T21:22:16.520Z,93701.53
2023-03-06T21:24:44.408Z,93705.47
2023-03-06T21:27:14.679Z,93703.38
2023-03-06T21:29:42.181Z,93712.25
2023-03-06T21:32:09.420Z,93703.44
2023-03-06T21:34:37.131Z,93713.13
2023-03-06T21:37:04.510Z,93708.31
2023-03-06T21:39:32.077Z,93701.91
2023-03-06T21:41:59.341Z,93700.75
2023-03-06T21:44:26.801Z,93698.38
2023-03-06T21:46:53.955Z,93707.44
2023-03-06T21:49:26.146Z,93696.78
2023-03-06T21:51:53.784Z,93697.91
2023-03-06T21:54:21.742Z,93692.84
2023-03-06T21:56:48.972Z,93688.00
2023-03-06T21:59:16.537Z,93690.72
2023-03-06T22:01:43.985Z,93686.38
2023-03-06T22:04:11.477Z,93694.78
2023-03-06T22:06:40.554Z,93686.59
2023-03-06T22:09:08.375Z,93679.63
2023-03-06T22:11:37.512Z,93679.75
2023-03-06T22:14:05.939Z,93689.38
2023-03-06T22:16:33.659Z,93680.34
2023-03-06T22:19:01.204Z,93677.22
2023-03-06T22:21:28.461Z,93673.19
2023-03-06T22:23:57.806Z,93676.31
2023-03-06T22:26:28.800Z,93664.50
2023-03-06T22:28:56.567Z,93670.47
2023-03-06T22:31:26.100Z,93685.78
2023-03-06T22:33:55.015Z,93678.16
2023-03-06T22:36:23.418Z,93683.91
2023-03-06T22:38:55.804Z,93681.63
2023-03-06T22:41:23.638Z,93681.53
2023-03-06T22:43:51.125Z,93675.69
2023-03-06T22:46:18.965Z,93687.56
2023-03-06T22:48:46.635Z,93688.72
2023-03-06T22:51:19.618Z,93685.06
2023-03-06T22:53:48.253Z,93697.31
2023-03-06T22:56:18.968Z,93694.91
2023-03-06T22:58:47.434Z,93696.25
2023-03-06T23:01:19.983Z,93685.28
2023-03-06T23:03:55.957Z,93682.94
2023-03-06T23:06:26.193Z,93697.84
2023-03-06T23:09:06.706Z,93690.53
2023-03-06T23:11:52.338Z,93690.97
2023-03-06T23:14:38.395Z,93700.47
2023-03-06T23:17:24.202Z,93701.59
2023-03-06T23:20:12.120Z,93694.63
2023-03-06T23:22:58.185Z,93702.44
2023-03-06T23:25:44.389Z,93694.41
2023-03-06T23:28:12.085Z,93692.56
2023-03-06T23:30:40.460Z,93695.41
2023-03-06T23:33:08.773Z,93706.13
2023-03-06T23:35:39.161Z,93685.25
2023-03-06T23:38:06.736Z,93690.16
2023-03-06T23:40:34.927Z,93700.69
2023-03-06T23:43:02.758Z,93677.63
2023-03-06T23:45:31.123Z,93692.38
2023-03-06T23:47:58.497Z,93695.25
2023-03-06T23:50:26.528Z,93690.44
2023-03-06T23:52:54.964Z,93684.88
2023-03-06T23:55:23.583Z,93687.91
2023-03-06T23:57:50.672Z,93682.06
